Nippon Maru — JNNU — position and weather

sailwx.info

Track history (hours):
 
Tides and Currents Weather Stations Pressure Air Temp Water Temp Dewpoint Dewpoint Depression Visibility Wind Speed Wind Dir Waves Ship Positions

Nippon Maru

Last reported at 2017-Jul-20 07:46 UTC. Time now 2017-Jul-21 02:32 UTC.
Position N 34°52' E 139°47'.

Length 166 m; draft 6.5 m.

Type: Passenger vessel. MMSI: 431302000.

Date/timePositionNaut miles runAvg speedWind from/ knotsBaromVisibWave heightAir tempDewpointWater temp
2017-Jul-20 07:46N 34°52' E 139°47'517.8
2017-Jul-20 07:29N 34°55' E 139°43'715.5
2017-Jul-20 07:00N 35°03' E 139°43'816.7
2017-Jul-20 06:31N 35°11' E 139°45'712.9
2017-Jul-20 06:00N 35°17' E 139°45'612.5
2017-Jul-20 05:30N 35°23' E 139°42'510.0
2017-Jul-20 05:00N 35°27' E 139°39'0 0.5
2017-Jul-20 04:31N 35°27' E 139°39'0 0.0
2017-Jul-20 03:59N 35°27' E 139°39'0 0.0
2017-Jul-20 03:29N 35°27' E 139°39'0 0.0
2017-Jul-20 02:59N 35°27' E 139°39'0 0.0
2017-Jul-20 02:29N 35°27' E 139°39'0 0.0
2017-Jul-20 01:59N 35°27' E 139°39'0 0.0
2017-Jul-20 01:29N 35°27' E 139°39'0 0.0
2017-Jul-20 00:59N 35°27' E 139°39'1 1.3
2017-Jul-20 00:30N 35°27' E 139°40'4 7.4
2017-Jul-20 00:00N 35°25' E 139°43'611.9
2017-Jul-19 23:30N 35°19' E 139°44'510.7
2017-Jul-19 23:00N 35°14' E 139°47'714.2
2017-Jul-19 22:30N 35°07' E 139°46'816.1
2017-Jul-19 22:00N 34°59' E 139°42'815.1
2017-Jul-19 21:30N 34°52' E 139°43'  
2017-Jul-15 14:00N 34°58' E 139°41'918.3
2017-Jul-15 13:30N 35°07' E 139°44'815.4
2017-Jul-15 13:00N 35°14' E 139°46'612.8
2017-Jul-15 12:30N 35°20' E 139°42'714.5
2017-Jul-15 12:00N 35°27' E 139°41'2 2.9
2017-Jul-15 11:29N 35°27' E 139°39'0 0.0
2017-Jul-15 10:58N 35°27' E 139°39'0 0.0
2017-Jul-15 10:28N 35°27' E 139°39'0 0.0
2017-Jul-15 09:58N 35°27' E 139°39'0 0.0
2017-Jul-15 09:28N 35°27' E 139°39'0 0.0
2017-Jul-15 08:58N 35°27' E 139°39'0 0.0
2017-Jul-15 08:28N 35°27' E 139°39'0 0.0
2017-Jul-15 07:58N 35°27' E 139°39'0 0.0
2017-Jul-15 07:28N 35°27' E 139°39'0 0.0
2017-Jul-15 06:58N 35°27' E 139°39'0 0.0
2017-Jul-15 06:28N 35°27' E 139°39'0 0.0
2017-Jul-15 05:55N 35°27' E 139°39'0 0.0
2017-Jul-15 05:28N 35°27' E 139°39'0 0.0
2017-Jul-15 04:58N 35°27' E 139°39'0 0.0
2017-Jul-15 04:28N 35°27' E 139°39'0 0.0
2017-Jul-15 03:58N 35°27' E 139°39'0 0.0
2017-Jul-15 03:28N 35°27' E 139°39'0 0.0
2017-Jul-15 02:58N 35°27' E 139°39'0 0.0
2017-Jul-15 02:28N 35°27' E 139°39'0 0.0
2017-Jul-15 01:58N 35°27' E 139°39'0 0.0
2017-Jul-15 01:28N 35°27' E 139°39'0 0.0
2017-Jul-15 00:58N 35°27' E 139°39'0 0.0
2017-Jul-15 00:28N 35°27' E 139°39'0 0.8
2017-Jul-15 00:01N 35°27' E 139°39'3 6.1
2017-Jul-14 23:30N 35°26' E 139°42'713.5
2017-Jul-14 23:00N 35°19' E 139°44'612.1
2017-Jul-14 22:30N 35°14' E 139°47'611.4
2017-Jul-14 22:00N 35°08' E 139°46'510.9
2017-Jul-14 21:30N 35°03' E 139°43'612.5
2017-Jul-14 21:00N 34°59' E 139°37'816.4
2017-Jul-14 20:30N 34°55' E 139°29'917.7
2017-Jul-14 20:00N 34°49' E 139°20'9 0.3
2017-Jul-13 13:02N 34°56' E 139°28'717.3
2017-Jul-13 12:39N 35°01' E 139°34'317.2
2017-Jul-13 12:30N 35°02' E 139°36'816.7
2017-Jul-13 12:00N 35°08' E 139°43'714.7
2017-Jul-13 11:30N 35°15' E 139°46'613.0
2017-Jul-13 11:01N 35°21' E 139°42'713.0
2017-Jul-13 10:30N 35°27' E 139°41'2 3.6
2017-Jul-13 10:00N 35°27' E 139°39'0 0.0
2017-Jul-13 09:30N 35°27' E 139°39'0 0.0
2017-Jul-13 09:00N 35°27' E 139°39'0 0.0
2017-Jul-13 08:30N 35°27' E 139°39'0 0.0
2017-Jul-13 08:00N 35°27' E 139°39'0 0.0
2017-Jul-13 07:30N 35°27' E 139°39'0 0.0
2017-Jul-13 07:00N 35°27' E 139°39'0 0.0
2017-Jul-13 06:30N 35°27' E 139°39'0 0.0
2017-Jul-13 06:00N 35°27' E 139°39'0 0.0
2017-Jul-13 05:30N 35°27' E 139°39'0 0.0
2017-Jul-13 05:00N 35°27' E 139°39'0 0.0
2017-Jul-13 04:30N 35°27' E 139°39'0 0.0
2017-Jul-13 04:00N 35°27' E 139°39'0 0.0
2017-Jul-13 03:30N 35°27' E 139°39'0 0.0
2017-Jul-13 03:00N 35°27' E 139°39'0 0.0
2017-Jul-13 02:30N 35°27' E 139°39'1 1.3
2017-Jul-13 02:00N 35°27' E 139°39'4 7.2
2017-Jul-13 01:31N 35°25' E 139°43'612.5
2017-Jul-13 01:00N 35°19' E 139°44'510.9
2017-Jul-13 00:30N 35°14' E 139°47'510.4
2017-Jul-13 00:00N 35°09' E 139°46'612.4
2017-Jul-12 23:30N 35°03' E 139°43'612.6
2017-Jul-12 23:00N 34°57' E 139°39'611.2
2017-Jul-12 22:30N 34°52' E 139°38'  
Track history (hours):
 
Tides and Currents Weather Stations Pressure Air Temp Water Temp Dewpoint Dewpoint Depression Visibility Wind Speed Wind Dir Waves Ship Positions

Nippon Maru

Last reported at 2017-Jul-20 07:46 UTC. Time now 2017-Jul-21 02:32 UTC.
Position N 34°52' E 139°47'.

Length 166 m; draft 6.5 m.

Type: Passenger vessel. MMSI: 431302000.

Date/timePositionNaut miles runAvg speedWind from/ knotsBaromVisibWave heightAir tempDewpointWater temp
2017-Jul-20 07:46N 34°52' E 139°47'517.8
2017-Jul-20 07:29N 34°55' E 139°43'715.5
2017-Jul-20 07:00N 35°03' E 139°43'816.7
2017-Jul-20 06:31N 35°11' E 139°45'712.9
2017-Jul-20 06:00N 35°17' E 139°45'612.5
2017-Jul-20 05:30N 35°23' E 139°42'510.0
2017-Jul-20 05:00N 35°27' E 139°39'0 0.5
2017-Jul-20 04:31N 35°27' E 139°39'0 0.0
2017-Jul-20 03:59N 35°27' E 139°39'0 0.0
2017-Jul-20 03:29N 35°27' E 139°39'0 0.0
2017-Jul-20 02:59N 35°27' E 139°39'0 0.0
2017-Jul-20 02:29N 35°27' E 139°39'0 0.0
2017-Jul-20 01:59N 35°27' E 139°39'0 0.0
2017-Jul-20 01:29N 35°27' E 139°39'0 0.0
2017-Jul-20 00:59N 35°27' E 139°39'1 1.3
2017-Jul-20 00:30N 35°27' E 139°40'4 7.4
2017-Jul-20 00:00N 35°25' E 139°43'611.9
2017-Jul-19 23:30N 35°19' E 139°44'510.7
2017-Jul-19 23:00N 35°14' E 139°47'714.2
2017-Jul-19 22:30N 35°07' E 139°46'816.1
2017-Jul-19 22:00N 34°59' E 139°42'815.1
2017-Jul-19 21:30N 34°52' E 139°43'  
2017-Jul-15 14:00N 34°58' E 139°41'918.3
2017-Jul-15 13:30N 35°07' E 139°44'815.4
2017-Jul-15 13:00N 35°14' E 139°46'612.8
2017-Jul-15 12:30N 35°20' E 139°42'714.5
2017-Jul-15 12:00N 35°27' E 139°41'2 2.9
2017-Jul-15 11:29N 35°27' E 139°39'0 0.0
2017-Jul-15 10:58N 35°27' E 139°39'0 0.0
2017-Jul-15 10:28N 35°27' E 139°39'0 0.0
2017-Jul-15 09:58N 35°27' E 139°39'0 0.0
2017-Jul-15 09:28N 35°27' E 139°39'0 0.0
2017-Jul-15 08:58N 35°27' E 139°39'0 0.0
2017-Jul-15 08:28N 35°27' E 139°39'0 0.0
2017-Jul-15 07:58N 35°27' E 139°39'0 0.0
2017-Jul-15 07:28N 35°27' E 139°39'0 0.0
2017-Jul-15 06:58N 35°27' E 139°39'0 0.0
2017-Jul-15 06:28N 35°27' E 139°39'0 0.0
2017-Jul-15 05:55N 35°27' E 139°39'0 0.0
2017-Jul-15 05:28N 35°27' E 139°39'0 0.0
2017-Jul-15 04:58N 35°27' E 139°39'0 0.0
2017-Jul-15 04:28N 35°27' E 139°39'0 0.0
2017-Jul-15 03:58N 35°27' E 139°39'0 0.0
2017-Jul-15 03:28N 35°27' E 139°39'0 0.0
2017-Jul-15 02:58N 35°27' E 139°39'0 0.0
2017-Jul-15 02:28N 35°27' E 139°39'0 0.0
2017-Jul-15 01:58N 35°27' E 139°39'0 0.0
2017-Jul-15 01:28N 35°27' E 139°39'0 0.0
2017-Jul-15 00:58N 35°27' E 139°39'0 0.0
2017-Jul-15 00:28N 35°27' E 139°39'0 0.8
2017-Jul-15 00:01N 35°27' E 139°39'3 6.1
2017-Jul-14 23:30N 35°26' E 139°42'713.5
2017-Jul-14 23:00N 35°19' E 139°44'612.1
2017-Jul-14 22:30N 35°14' E 139°47'611.4
2017-Jul-14 22:00N 35°08' E 139°46'510.9
2017-Jul-14 21:30N 35°03' E 139°43'612.5
2017-Jul-14 21:00N 34°59' E 139°37'816.4
2017-Jul-14 20:30N 34°55' E 139°29'917.7
2017-Jul-14 20:00N 34°49' E 139°20'9 0.3
2017-Jul-13 13:02N 34°56' E 139°28'717.3
2017-Jul-13 12:39N 35°01' E 139°34'317.2
2017-Jul-13 12:30N 35°02' E 139°36'816.7
2017-Jul-13 12:00N 35°08' E 139°43'714.7
2017-Jul-13 11:30N 35°15' E 139°46'613.0
2017-Jul-13 11:01N 35°21' E 139°42'713.0
2017-Jul-13 10:30N 35°27' E 139°41'2 3.6
2017-Jul-13 10:00N 35°27' E 139°39'0 0.0
2017-Jul-13 09:30N 35°27' E 139°39'0 0.0
2017-Jul-13 09:00N 35°27' E 139°39'0 0.0
2017-Jul-13 08:30N 35°27' E 139°39'0 0.0
2017-Jul-13 08:00N 35°27' E 139°39'0 0.0
2017-Jul-13 07:30N 35°27' E 139°39'0 0.0
2017-Jul-13 07:00N 35°27' E 139°39'0 0.0
2017-Jul-13 06:30N 35°27' E 139°39'0 0.0
2017-Jul-13 06:00N 35°27' E 139°39'0 0.0
2017-Jul-13 05:30N 35°27' E 139°39'0 0.0
2017-Jul-13 05:00N 35°27' E 139°39'0 0.0
2017-Jul-13 04:30N 35°27' E 139°39'0 0.0
2017-Jul-13 04:00N 35°27' E 139°39'0 0.0
2017-Jul-13 03:30N 35°27' E 139°39'0 0.0
2017-Jul-13 03:00N 35°27' E 139°39'0 0.0
2017-Jul-13 02:30N 35°27' E 139°39'1 1.3
2017-Jul-13 02:00N 35°27' E 139°39'4 7.2
2017-Jul-13 01:31N 35°25' E 139°43'612.5
2017-Jul-13 01:00N 35°19' E 139°44'510.9
2017-Jul-13 00:30N 35°14' E 139°47'510.4
2017-Jul-13 00:00N 35°09' E 139°46'612.4
2017-Jul-12 23:30N 35°03' E 139°43'612.6
2017-Jul-12 23:00N 34°57' E 139°39'611.2
2017-Jul-12 22:30N 34°52' E 139°38'  

Dump ship's entire track history